Terminal Aerodrome Forecast
Issued by NWS Grand Rapids, MI

Home | Current Version | Previous Version | Text Only | Print | Product List | Glossary On
Versions: 1 2 3 4 5 6 7 8 9 10 11 12 13 14 15
000
FTUS43 KGRR 242300 RRA
TAFGRR
TAF
KGRR 242343Z 2500/2524 11012G23KT P6SM VCSH OVC100
     FM250500 11010G18KT 6SM -RA OVC060
     FM250900 09009KT 5SM -RA OVC040
     FM251300 30008KT P6SM OVC025
     FM251600 29012G23KT P6SM SCT040=

USA.gov is the U.S. government's official web portal to all federal, state and local government web resources and services.